sensor_id;sensor_type;location;lat;lon;timestamp;pressure;altitude;pressure_sealevel;temperature;humidity
70053;BME280;57398;52.032;4.376;2023-03-04T00:00:46;102981.41;;;5.02;nan
70053;BME280;57398;52.032;4.376;2023-03-04T00:03:34;102991.03;;;5.00;nan
70053;BME280;57398;52.032;4.376;2023-03-04T00:06:23;102988.31;;;5.02;nan
70053;BME280;57398;52.032;4.376;2023-03-04T00:09:11;102984.09;;;5.01;nan
70053;BME280;57398;52.032;4.376;2023-03-04T00:12:01;102981.53;;;5.01;nan
70053;BME280;57398;52.032;4.376;2023-03-04T00:14:50;102982.47;;;5.00;nan
70053;BME280;57398;52.032;4.376;2023-03-04T00:17:38;102979.38;;;5.06;nan
70053;BME280;57398;52.032;4.376;2023-03-04T00:20:26;102987.47;;;5.01;nan
70053;BME280;57398;52.032;4.376;2023-03-04T00:23:14;102994.41;;;5.01;nan
70053;BME280;57398;52.032;4.376;2023-03-04T00:26:02;103013.00;;;5.04;nan
70053;BME280;57398;52.032;4.376;2023-03-04T00:28:52;102988.19;;;5.03;nan
70053;BME280;57398;52.032;4.376;2023-03-04T00:31:40;102978.81;;;5.02;nan
70053;BME280;57398;52.032;4.376;2023-03-04T00:34:28;102977.34;;;5.00;nan
70053;BME280;57398;52.032;4.376;2023-03-04T00:37:18;102977.34;;;5.00;nan
70053;BME280;57398;52.032;4.376;2023-03-04T00:40:07;102975.97;;;5.06;nan
70053;BME280;57398;52.032;4.376;2023-03-04T00:42:56;102978.72;;;5.04;nan
70053;BME280;57398;52.032;4.376;2023-03-04T00:45:45;102975.44;;;5.02;nan
70053;BME280;57398;52.032;4.376;2023-03-04T00:48:33;102978.72;;;5.04;nan
70053;BME280;57398;52.032;4.376;2023-03-04T00:51:22;102978.72;;;5.04;nan
70053;BME280;57398;52.032;4.376;2023-03-04T00:54:10;102977.06;;;5.03;nan
70053;BME280;57398;52.032;4.376;2023-03-04T00:56:58;102972.47;;;5.07;nan
70053;BME280;57398;52.032;4.376;2023-03-04T00:59:46;102982.09;;;5.04;nan
70053;BME280;57398;52.032;4.376;2023-03-04T01:02:36;102982.31;;;5.01;nan
70053;BME280;57398;52.032;4.376;2023-03-04T01:05:24;102977.75;;;5.05;nan
70053;BME280;57398;52.032;4.376;2023-03-04T01:08:12;102990.50;;;5.07;nan
70053;BME280;57398;52.032;4.376;2023-03-04T01:11:00;102978.94;;;5.01;nan
70053;BME280;57398;52.032;4.376;2023-03-04T01:13:48;102981.28;;;5.04;nan
70053;BME280;57398;52.032;4.376;2023-03-04T01:16:36;102978.94;;;5.01;nan
70053;BME280;57398;52.032;4.376;2023-03-04T01:19:26;102978.56;;;5.06;nan
70053;BME280;57398;52.032;4.376;2023-03-04T01:22:14;102972.59;;;5.05;nan
70053;BME280;57398;52.032;4.376;2023-03-04T01:25:06;102972.59;;;5.05;nan
70053;BME280;57398;52.032;4.376;2023-03-04T01:27:54;102969.22;;;5.04;nan
70053;BME280;57398;52.032;4.376;2023-03-04T01:30:42;102962.41;;;5.03;nan
70053;BME280;57398;52.032;4.376;2023-03-04T01:33:30;102963.09;;;5.06;nan
70053;BME280;57398;52.032;4.376;2023-03-04T01:36:20;102955.66;;;5.02;nan
70053;BME280;57398;52.032;4.376;2023-03-04T01:39:08;102947.22;;;5.00;nan
70053;BME280;57398;52.032;4.376;2023-03-04T01:41:56;102950.75;;;4.99;nan
70053;BME280;57398;52.032;4.376;2023-03-04T01:44:45;102953.19;;;5.01;nan
70053;BME280;57398;52.032;4.376;2023-03-04T01:47:34;102949.41;;;5.05;nan
70053;BME280;57398;52.032;4.376;2023-03-04T01:50:26;102936.66;;;5.03;nan
70053;BME280;57398;52.032;4.376;2023-03-04T01:53:20;102941.13;;;5.01;nan
70053;BME280;57398;52.032;4.376;2023-03-04T01:56:13;102930.16;;;4.99;nan
70053;BME280;57398;52.032;4.376;2023-03-04T01:59:08;102935.31;;;4.99;nan
70053;BME280;57398;52.032;4.376;2023-03-04T02:01:58;102925.25;;;4.96;nan
70053;BME280;57398;52.032;4.376;2023-03-04T02:04:47;102925.13;;;4.98;nan
70053;BME280;57398;52.032;4.376;2023-03-04T02:07:35;102915.34;;;4.92;nan
70053;BME280;57398;52.032;4.376;2023-03-04T02:10:25;102909.09;;;4.94;nan
70053;BME280;57398;52.032;4.376;2023-03-04T02:13:13;102901.53;;;4.93;nan
70053;BME280;57398;52.032;4.376;2023-03-04T02:16:02;102899.88;;;4.92;nan
70053;BME280;57398;52.032;4.376;2023-03-04T02:18:51;102906.13;;;4.99;nan
70053;BME280;57398;52.032;4.376;2023-03-04T02:21:39;102903.94;;;4.94;nan
70053;BME280;57398;52.032;4.376;2023-03-04T02:24:31;102903.94;;;4.94;nan
70053;BME280;57398;52.032;4.376;2023-03-04T02:27:23;102898.00;;;4.94;nan
70053;BME280;57398;52.032;4.376;2023-03-04T02:30:21;102906.28;;;4.97;nan
70053;BME280;57398;52.032;4.376;2023-03-04T02:33:15;102911.44;;;4.97;nan
70053;BME280;57398;52.032;4.376;2023-03-04T02:36:04;102895.41;;;4.94;nan
70053;BME280;57398;52.032;4.376;2023-03-04T02:38:53;102894.03;;;4.90;nan
70053;BME280;57398;52.032;4.376;2023-03-04T02:41:41;102888.09;;;4.89;nan
70053;BME280;57398;52.032;4.376;2023-03-04T02:44:33;102890.66;;;4.89;nan
70053;BME280;57398;52.032;4.376;2023-03-04T02:47:21;102886.47;;;4.88;nan
70053;BME280;57398;52.032;4.376;2023-03-04T02:50:10;102885.78;;;4.86;nan
70053;BME280;57398;52.032;4.376;2023-03-04T02:52:58;102882.75;;;4.81;nan
70053;BME280;57398;52.032;4.376;2023-03-04T02:55:47;102886.16;;;4.81;nan
70053;BME280;57398;52.032;4.376;2023-03-04T02:58:36;102882.50;;;4.84;nan
70053;BME280;57398;52.032;4.376;2023-03-04T03:01:28;102887.66;;;4.84;nan
70053;BME280;57398;52.032;4.376;2023-03-04T03:04:17;102884.28;;;4.83;nan
70053;BME280;57398;52.032;4.376;2023-03-04T03:07:05;102873.81;;;4.75;nan
70053;BME280;57398;52.032;4.376;2023-03-04T03:09:54;102879.91;;;4.74;nan
70053;BME280;57398;52.032;4.376;2023-03-04T03:12:42;102880.84;;;4.73;nan
70053;BME280;57398;52.032;4.376;2023-03-04T03:15:30;102873.38;;;4.70;nan
70053;BME280;57398;52.032;4.376;2023-03-04T03:18:20;102875.25;;;4.68;nan
70053;BME280;57398;52.032;4.376;2023-03-04T03:21:08;102873.63;;;4.67;nan
70053;BME280;57398;52.032;4.376;2023-03-04T03:23:56;102870.81;;;4.70;nan
70053;BME280;57398;52.032;4.376;2023-03-04T03:26:44;102871.50;;;4.72;nan
70053;BME280;57398;52.032;4.376;2023-03-04T03:29:32;102867.28;;;4.71;nan
70053;BME280;57398;52.032;4.376;2023-03-04T03:32:20;102864.84;;;4.70;nan
70053;BME280;57398;52.032;4.376;2023-03-04T03:35:10;102865.50;;;4.72;nan
70053;BME280;57398;52.032;4.376;2023-03-04T03:37:58;102867.69;;;4.76;nan
70053;BME280;57398;52.032;4.376;2023-03-04T03:40:46;102868.38;;;4.78;nan
70053;BME280;57398;52.032;4.376;2023-03-04T03:43:34;102873.28;;;4.81;nan
70053;BME280;57398;52.032;4.376;2023-03-04T03:46:22;102874.09;;;4.82;nan
70053;BME280;57398;52.032;4.376;2023-03-04T03:49:10;102882.09;;;4.79;nan
70053;BME280;57398;52.032;4.376;2023-03-04T03:51:59;102878.69;;;4.78;nan
70053;BME280;57398;52.032;4.376;2023-03-04T03:54:47;102882.22;;;4.77;nan
70053;BME280;57398;52.032;4.376;2023-03-04T03:57:36;102886.41;;;4.78;nan
70053;BME280;57398;52.032;4.376;2023-03-04T04:00:24;102896.47;;;4.81;nan
70053;BME280;57398;52.032;4.376;2023-03-04T04:03:13;102887.91;;;4.81;nan
70053;BME280;57398;52.032;4.376;2023-03-04T04:06:02;102886.41;;;4.78;nan
70053;BME280;57398;52.032;4.376;2023-03-04T04:08:51;102891.69;;;4.77;nan
70053;BME280;57398;52.032;4.376;2023-03-04T04:11:40;102896.69;;;4.78;nan
70053;BME280;57398;52.032;4.376;2023-03-04T04:14:28;102902.13;;;4.75;nan
70053;BME280;57398;52.032;4.376;2023-03-04T04:17:16;102893.72;;;4.73;nan
70053;BME280;57398;52.032;4.376;2023-03-04T04:20:05;102896.00;;;4.76;nan
70053;BME280;57398;52.032;4.376;2023-03-04T04:22:54;102898.59;;;4.76;nan
70053;BME280;57398;52.032;4.376;2023-03-04T04:25:43;102890.06;;;4.76;nan
70053;BME280;57398;52.032;4.376;2023-03-04T04:28:32;102896.28;;;4.73;nan
70053;BME280;57398;52.032;4.376;2023-03-04T04:31:20;102896.28;;;4.73;nan
70053;BME280;57398;52.032;4.376;2023-03-04T04:34:08;102893.97;;;4.70;nan
70053;BME280;57398;52.032;4.376;2023-03-04T04:36:56;102890.59;;;4.70;nan
70053;BME280;57398;52.032;4.376;2023-03-04T04:39:45;102888.13;;;4.68;nan
70053;BME280;57398;52.032;4.376;2023-03-04T04:42:34;102884.75;;;4.68;nan
70053;BME280;57398;52.032;4.376;2023-03-04T04:45:23;102876.06;;;4.69;nan
70053;BME280;57398;52.032;4.376;2023-03-04T04:48:11;102877.72;;;4.70;nan
70053;BME280;57398;52.032;4.376;2023-03-04T04:50:59;102871.72;;;4.69;nan
70053;BME280;57398;52.032;4.376;2023-03-04T04:53:48;102886.38;;;4.69;nan
70053;BME280;57398;52.032;4.376;2023-03-04T04:56:37;102883.53;;;4.72;nan
70053;BME280;57398;52.032;4.376;2023-03-04T04:59:26;102886.38;;;4.69;nan
70053;BME280;57398;52.032;4.376;2023-03-04T05:02:15;102890.63;;;4.79;nan
70053;BME280;57398;52.032;4.376;2023-03-04T05:05:04;102879.75;;;4.76;nan
70053;BME280;57398;52.032;4.376;2023-03-04T05:07:52;102894.66;;;4.72;nan
70053;BME280;57398;52.032;4.376;2023-03-04T05:10:40;102887.19;;;4.69;nan
70053;BME280;57398;52.032;4.376;2023-03-04T05:13:28;102893.81;;;4.72;nan
70053;BME280;57398;52.032;4.376;2023-03-04T05:16:18;102900.50;;;4.74;nan
70053;BME280;57398;52.032;4.376;2023-03-04T05:19:06;102901.44;;;4.73;nan
70053;BME280;57398;52.032;4.376;2023-03-04T05:21:55;102902.38;;;4.72;nan
70053;BME280;57398;52.032;4.376;2023-03-04T05:24:43;102907.53;;;4.72;nan
70053;BME280;57398;52.032;4.376;2023-03-04T05:27:31;102899.94;;;4.71;nan
70053;BME280;57398;52.032;4.376;2023-03-04T05:30:20;102912.00;;;4.70;nan
70053;BME280;57398;52.032;4.376;2023-03-04T05:33:10;102904.13;;;4.72;nan
70053;BME280;57398;52.032;4.376;2023-03-04T05:36:00;102901.53;;;4.72;nan
70053;BME280;57398;52.032;4.376;2023-03-04T05:38:48;102897.94;;;4.74;nan
70053;BME280;57398;52.032;4.376;2023-03-04T05:41:37;102881.53;;;4.75;nan
70053;BME280;57398;52.032;4.376;2023-03-04T05:44:25;102881.00;;;4.81;nan
70053;BME280;57398;52.032;4.376;2023-03-04T05:47:13;102879.94;;;4.84;nan
70053;BME280;57398;52.032;4.376;2023-03-04T05:50:02;102871.53;;;4.82;nan
70053;BME280;57398;52.032;4.376;2023-03-04T05:52:51;102878.84;;;4.87;nan
70053;BME280;57398;52.032;4.376;2023-03-04T05:55:39;102873.72;;;4.87;nan
70053;BME280;57398;52.032;4.376;2023-03-04T05:58:27;102873.72;;;4.87;nan
70053;BME280;57398;52.032;4.376;2023-03-04T06:01:16;102871.25;;;4.85;nan
70053;BME280;57398;52.032;4.376;2023-03-04T06:04:04;102881.56;;;4.85;nan
70053;BME280;57398;52.032;4.376;2023-03-04T06:06:54;102891.31;;;4.81;nan
70053;BME280;57398;52.032;4.376;2023-03-04T06:09:42;102889.94;;;4.77;nan
70053;BME280;57398;52.032;4.376;2023-03-04T06:12:31;102899.81;;;4.72;nan
70053;BME280;57398;52.032;4.376;2023-03-04T06:15:19;102902.69;;;4.58;nan
70053;BME280;57398;52.032;4.376;2023-03-04T06:18:07;102897.66;;;4.47;nan
70053;BME280;57398;52.032;4.376;2023-03-04T06:20:56;102911.19;;;4.49;nan
70053;BME280;57398;52.032;4.376;2023-03-04T06:23:46;102907.09;;;4.46;nan
70053;BME280;57398;52.032;4.376;2023-03-04T06:26:34;102909.00;;;4.44;nan
70053;BME280;57398;52.032;4.376;2023-03-04T06:29:22;102904.78;;;4.43;nan
70053;BME280;57398;52.032;4.376;2023-03-04T06:32:10;102904.69;;;4.45;nan
70053;BME280;57398;52.032;4.376;2023-03-04T06:34:59;102917.97;;;4.50;nan
70053;BME280;57398;52.032;4.376;2023-03-04T06:37:47;102920.16;;;4.54;nan
70053;BME280;57398;52.032;4.376;2023-03-04T06:40:37;102919.59;;;4.51;nan
70053;BME280;57398;52.032;4.376;2023-03-04T06:43:25;102922.63;;;4.56;nan
70053;BME280;57398;52.032;4.376;2023-03-04T06:46:13;102916.94;;;4.62;nan
70053;BME280;57398;52.032;4.376;2023-03-04T06:49:02;102917.25;;;4.69;nan
70053;BME280;57398;52.032;4.376;2023-03-04T06:51:50;102920.13;;;4.75;nan
70053;BME280;57398;52.032;4.376;2023-03-04T06:54:39;102917.31;;;4.78;nan
70053;BME280;57398;52.032;4.376;2023-03-04T06:57:28;102916.22;;;4.81;nan
70053;BME280;57398;52.032;4.376;2023-03-04T07:00:17;102912.72;;;4.82;nan
70053;BME280;57398;52.032;4.376;2023-03-04T07:03:06;102906.69;;;4.93;nan
70053;BME280;57398;52.032;4.376;2023-03-04T07:05:54;102912.38;;;4.96;nan
70053;BME280;57398;52.032;4.376;2023-03-04T07:08:42;102907.09;;;4.98;nan
70053;BME280;57398;52.032;4.376;2023-03-04T07:11:31;102910.91;;;5.03;nan
70053;BME280;57398;52.032;4.376;2023-03-04T07:14:21;102916.63;;;5.07;nan
70053;BME280;57398;52.032;4.376;2023-03-04T07:17:10;102909.44;;;5.11;nan
70053;BME280;57398;52.032;4.376;2023-03-04T07:19:58;102921.78;;;5.07;nan
70053;BME280;57398;52.032;4.376;2023-03-04T07:22:46;102914.03;;;5.07;nan
70053;BME280;57398;52.032;4.376;2023-03-04T07:25:34;102924.34;;;5.07;nan
70053;BME280;57398;52.032;4.376;2023-03-04T07:28:22;102915.53;;;5.10;nan
70053;BME280;57398;52.032;4.376;2023-03-04T07:31:18;102917.59;;;5.16;nan
70053;BME280;57398;52.032;4.376;2023-03-04T07:34:09;102923.59;;;5.26;nan
70053;BME280;57398;52.032;4.376;2023-03-04T07:36:59;102923.91;;;5.42;nan
70053;BME280;57398;52.032;4.376;2023-03-04T07:39:47;102933.28;;;5.53;nan
70053;BME280;57398;52.032;4.376;2023-03-04T07:42:35;102932.19;;;5.46;nan
70053;BME280;57398;52.032;4.376;2023-03-04T07:45:23;102941.00;;;5.43;nan
70053;BME280;57398;52.032;4.376;2023-03-04T07:48:13;102947.59;;;5.27;nan
70053;BME280;57398;52.032;4.376;2023-03-04T07:51:06;102957.47;;;5.21;nan
70053;BME280;57398;52.032;4.376;2023-03-04T07:53:56;102964.31;;;5.32;nan
70053;BME280;57398;52.032;4.376;2023-03-04T07:56:45;102966.09;;;5.51;nan
70053;BME280;57398;52.032;4.376;2023-03-04T07:59:33;102966.97;;;5.61;nan
70053;BME280;57398;52.032;4.376;2023-03-04T08:02:21;102957.59;;;5.60;nan
70053;BME280;57398;52.032;4.376;2023-03-04T08:05:10;102962.63;;;5.72;nan
70053;BME280;57398;52.032;4.376;2023-03-04T08:07:58;102960.16;;;5.70;nan
70053;BME280;57398;52.032;4.376;2023-03-04T08:10:46;102948.91;;;5.61;nan
70053;BME280;57398;52.032;4.376;2023-03-04T08:13:35;102952.88;;;5.75;nan
70053;BME280;57398;52.032;4.376;2023-03-04T08:16:24;102957.94;;;5.96;nan
70053;BME280;57398;52.032;4.376;2023-03-04T08:19:12;102954.78;;;6.02;nan
70053;BME280;57398;52.032;4.376;2023-03-04T08:22:02;102957.66;;;6.09;nan
70053;BME280;57398;52.032;4.376;2023-03-04T08:24:50;102958.63;;;6.08;nan
70053;BME280;57398;52.032;4.376;2023-03-04T08:27:38;102952.91;;;5.95;nan
70053;BME280;57398;52.032;4.376;2023-03-04T08:30:26;102951.81;;;5.97;nan
70053;BME280;57398;52.032;4.376;2023-03-04T08:33:14;102960.63;;;6.04;nan
70053;BME280;57398;52.032;4.376;2023-03-04T08:36:03;102969.56;;;5.81;nan
70053;BME280;57398;52.032;4.376;2023-03-04T08:38:52;102979.31;;;5.67;nan
70053;BME280;57398;52.032;4.376;2023-03-04T08:41:41;102986.84;;;5.50;nan
70053;BME280;57398;52.032;4.376;2023-03-04T08:44:29;102988.78;;;5.57;nan
70053;BME280;57398;52.032;4.376;2023-03-04T08:47:17;102986.00;;;5.80;nan
70053;BME280;57398;52.032;4.376;2023-03-04T08:50:06;102984.63;;;5.85;nan
70053;BME280;57398;52.032;4.376;2023-03-04T08:52:54;102989.50;;;5.69;nan
70053;BME280;57398;52.032;4.376;2023-03-04T08:55:44;102980.56;;;5.73;nan
70053;BME280;57398;52.032;4.376;2023-03-04T08:58:32;102978.41;;;5.98;nan
70053;BME280;57398;52.032;4.376;2023-03-04T09:01:21;102977.22;;;6.50;nan
70053;BME280;57398;52.032;4.376;2023-03-04T09:04:09;102963.28;;;6.71;nan
70053;BME280;57398;52.032;4.376;2023-03-04T09:06:57;102972.97;;;6.69;nan
70053;BME280;57398;52.032;4.376;2023-03-04T09:09:45;102952.59;;;6.56;nan
70053;BME280;57398;52.032;4.376;2023-03-04T09:12:35;102959.69;;;6.25;nan
70053;BME280;57398;52.032;4.376;2023-03-04T09:15:23;102960.50;;;5.86;nan
70053;BME280;57398;52.032;4.376;2023-03-04T09:18:11;102975.13;;;5.86;nan
70053;BME280;57398;52.032;4.376;2023-03-04T09:20:59;102975.41;;;5.73;nan
70053;BME280;57398;52.032;4.376;2023-03-04T09:23:47;102974.53;;;5.63;nan
70053;BME280;57398;52.032;4.376;2023-03-04T09:26:36;102970.06;;;5.65;nan
70053;BME280;57398;52.032;4.376;2023-03-04T09:29:25;102968.63;;;5.82;nan
70053;BME280;57398;52.032;4.376;2023-03-04T09:32:13;102973.00;;;6.11;nan
70053;BME280;57398;52.032;4.376;2023-03-04T09:35:02;102979.50;;;6.34;nan
70053;BME280;57398;52.032;4.376;2023-03-04T09:37:50;102965.88;;;6.61;nan
70053;BME280;57398;52.032;4.376;2023-03-04T09:40:41;102967.56;;;6.43;nan
70053;BME280;57398;52.032;4.376;2023-03-04T09:43:30;102965.13;;;6.88;nan
70053;BME280;57398;52.032;4.376;2023-03-04T09:46:23;102952.50;;;6.85;nan
70053;BME280;57398;52.032;4.376;2023-03-04T09:49:13;102955.69;;;6.69;nan
70053;BME280;57398;52.032;4.376;2023-03-04T09:52:04;102952.47;;;6.38;nan
70053;BME280;57398;52.032;4.376;2023-03-04T09:55:03;102967.28;;;6.36;nan
70053;BME280;57398;52.032;4.376;2023-03-04T09:57:56;102953.94;;;6.60;nan
70053;BME280;57398;52.032;4.376;2023-03-04T10:00:54;102964.13;;;6.62;nan
70053;BME280;57398;52.032;4.376;2023-03-04T10:03:45;102942.91;;;6.68;nan
70053;BME280;57398;52.032;4.376;2023-03-04T10:06:35;102943.50;;;6.99;nan
70053;BME280;57398;52.032;4.376;2023-03-04T10:09:28;102944.16;;;7.29;nan
70053;BME280;57398;52.032;4.376;2023-03-04T10:12:19;102946.66;;;6.83;nan
70053;BME280;57398;52.032;4.376;2023-03-04T10:15:22;102948.06;;;6.68;nan
70053;BME280;57398;52.032;4.376;2023-03-04T10:18:15;102959.13;;;6.41;nan
70053;BME280;57398;52.032;4.376;2023-03-04T10:21:14;102966.50;;;6.16;nan
70053;BME280;57398;52.032;4.376;2023-03-04T10:24:10;102983.75;;;5.96;nan
70053;BME280;57398;52.032;4.376;2023-03-04T10:27:03;102973.41;;;5.96;nan
70053;BME280;57398;52.032;4.376;2023-03-04T10:29:54;102975.31;;;6.14;nan
70053;BME280;57398;52.032;4.376;2023-03-04T10:32:44;102978.16;;;6.11;nan
70053;BME280;57398;52.032;4.376;2023-03-04T10:35:35;102974.91;;;6.08;nan
70053;BME280;57398;52.032;4.376;2023-03-04T10:38:28;102978.84;;;6.32;nan
70053;BME280;57398;52.032;4.376;2023-03-04T10:41:20;102968.09;;;6.93;nan
70053;BME280;57398;52.032;4.376;2023-03-04T10:44:16;102964.16;;;7.54;nan
70053;BME280;57398;52.032;4.376;2023-03-04T10:47:08;102955.56;;;7.08;nan
70053;BME280;57398;52.032;4.376;2023-03-04T10:50:01;102957.25;;;6.80;nan
70053;BME280;57398;52.032;4.376;2023-03-04T10:52:50;102953.13;;;6.60;nan
70053;BME280;57398;52.032;4.376;2023-03-04T10:55:44;102953.25;;;6.58;nan
70053;BME280;57398;52.032;4.376;2023-03-04T10:58:32;102951.31;;;7.17;nan
70053;BME280;57398;52.032;4.376;2023-03-04T11:01:20;102941.66;;;7.37;nan
70053;BME280;57398;52.032;4.376;2023-03-04T11:04:16;102935.38;;;7.40;nan
70053;BME280;57398;52.032;4.376;2023-03-04T11:07:07;102944.44;;;7.26;nan
70053;BME280;57398;52.032;4.376;2023-03-04T11:10:07;102927.59;;;7.22;nan
70053;BME280;57398;52.032;4.376;2023-03-04T11:13:02;102926.03;;;7.11;nan
70053;BME280;57398;52.032;4.376;2023-03-04T11:15:55;102928.09;;;6.70;nan
70053;BME280;57398;52.032;4.376;2023-03-04T11:18:47;102930.00;;;6.68;nan
70053;BME280;57398;52.032;4.376;2023-03-04T11:21:38;102924.69;;;7.07;nan
70053;BME280;57398;52.032;4.376;2023-03-04T11:24:28;102917.34;;;7.30;nan
70053;BME280;57398;52.032;4.376;2023-03-04T11:27:20;102911.97;;;7.41;nan
70053;BME280;57398;52.032;4.376;2023-03-04T11:30:33;102906.56;;;7.34;nan
70053;BME280;57398;52.032;4.376;2023-03-04T11:33:27;102906.81;;;7.41;nan
70053;BME280;57398;52.032;4.376;2023-03-04T11:36:29;102906.28;;;7.73;nan
70053;BME280;57398;52.032;4.376;2023-03-04T11:39:25;102897.88;;;7.71;nan
70053;BME280;57398;52.032;4.376;2023-03-04T11:42:22;102899.13;;;7.85;nan
70053;BME280;57398;52.032;4.376;2023-03-04T11:45:13;102887.88;;;7.94;nan
70053;BME280;57398;52.032;4.376;2023-03-04T11:48:20;102883.91;;;7.82;nan
70053;BME280;57398;52.032;4.376;2023-03-04T11:51:19;102883.44;;;8.05;nan
70053;BME280;57398;52.032;4.376;2023-03-04T11:54:16;102871.63;;;7.48;nan
70053;BME280;57398;52.032;4.376;2023-03-04T11:57:16;102874.59;;;7.71;nan
70053;BME280;57398;52.032;4.376;2023-03-04T12:00:21;102855.47;;;7.28;nan
70053;BME280;57398;52.032;4.376;2023-03-04T12:09:19;102878.59;;;7.02;nan
70053;BME280;57398;52.032;4.376;2023-03-04T12:12:38;102908.53;;;6.67;nan
70053;BME280;57398;52.032;4.376;2023-03-04T12:15:32;102911.72;;;6.42;nan
70053;BME280;57398;52.032;4.376;2023-03-04T12:18:35;102922.34;;;6.19;nan
70053;BME280;57398;52.032;4.376;2023-03-04T12:21:44;102912.94;;;6.38;nan
70053;BME280;57398;52.032;4.376;2023-03-04T12:28:00;102903.59;;;6.17;nan
70053;BME280;57398;52.032;4.376;2023-03-04T12:30:59;102895.88;;;6.17;nan
70053;BME280;57398;52.032;4.376;2023-03-04T12:34:18;102900.97;;;6.46;nan
70053;BME280;57398;52.032;4.376;2023-03-04T12:40:45;102886.31;;;6.37;nan
70053;BME280;57398;52.032;4.376;2023-03-04T12:43:47;102878.50;;;6.10;nan
70053;BME280;57398;52.032;4.376;2023-03-04T12:46:45;102869.66;;;6.12;nan
70053;BME280;57398;52.032;4.376;2023-03-04T12:49:48;102873.59;;;6.06;nan
70053;BME280;57398;52.032;4.376;2023-03-04T12:52:46;102880.28;;;6.56;nan
70053;BME280;57398;52.032;4.376;2023-03-04T12:55:41;102871.94;;;7.00;nan
70053;BME280;57398;52.032;4.376;2023-03-04T12:58:32;102872.44;;;6.76;nan
70053;BME280;57398;52.032;4.376;2023-03-04T13:01:25;102860.91;;;6.42;nan
70053;BME280;57398;52.032;4.376;2023-03-04T13:04:21;102859.50;;;6.48;nan
70053;BME280;57398;52.032;4.376;2023-03-04T13:07:16;102856.03;;;6.39;nan
70053;BME280;57398;52.032;4.376;2023-03-04T13:10:11;102847.94;;;6.52;nan
70053;BME280;57398;52.032;4.376;2023-03-04T13:13:00;102844.88;;;7.04;nan
70053;BME280;57398;52.032;4.376;2023-03-04T13:16:00;102838.22;;;7.01;nan
70053;BME280;57398;52.032;4.376;2023-03-04T13:18:50;102837.13;;;7.04;nan
70053;BME280;57398;52.032;4.376;2023-03-04T13:21:43;102819.84;;;7.22;nan
70053;BME280;57398;52.032;4.376;2023-03-04T13:24:46;102827.75;;;7.74;nan
70053;BME280;57398;52.032;4.376;2023-03-04T13:27:44;102806.63;;;7.43;nan
70053;BME280;57398;52.032;4.376;2023-03-04T13:30:42;102802.84;;;7.55;nan
70053;BME280;57398;52.032;4.376;2023-03-04T13:33:56;102800.41;;;7.72;nan
70053;BME280;57398;52.032;4.376;2023-03-04T13:36:55;102795.03;;;7.29;nan
70053;BME280;57398;52.032;4.376;2023-03-04T13:43:27;102809.44;;;6.31;nan
70053;BME280;57398;52.032;4.376;2023-03-04T13:46:29;102808.88;;;6.37;nan
70053;BME280;57398;52.032;4.376;2023-03-04T13:49:20;102816.50;;;6.29;nan
70053;BME280;57398;52.032;4.376;2023-03-04T13:52:36;102805.72;;;6.43;nan
70053;BME280;57398;52.032;4.376;2023-03-04T13:55:36;102811.91;;;6.60;nan
70053;BME280;57398;52.032;4.376;2023-03-04T13:58:25;102807.38;;;7.18;nan
70053;BME280;57398;52.032;4.376;2023-03-04T14:01:24;102801.22;;;7.01;nan
70053;BME280;57398;52.032;4.376;2023-03-04T14:04:17;102797.41;;;7.41;nan
70053;BME280;57398;52.032;4.376;2023-03-04T14:07:19;102796.66;;;7.30;nan
70053;BME280;57398;52.032;4.376;2023-03-04T14:10:20;102772.44;;;7.31;nan
70053;BME280;57398;52.032;4.376;2023-03-04T14:13:11;102764.31;;;7.26;nan
70053;BME280;57398;52.032;4.376;2023-03-04T14:15:59;102766.41;;;7.49;nan
70053;BME280;57398;52.032;4.376;2023-03-04T14:18:56;102767.41;;;8.00;nan
70053;BME280;57398;52.032;4.376;2023-03-04T14:21:46;102754.53;;;7.56;nan
70053;BME280;57398;52.032;4.376;2023-03-04T14:24:34;102746.94;;;7.37;nan
70053;BME280;57398;52.032;4.376;2023-03-04T14:27:22;102748.00;;;7.08;nan
70053;BME280;57398;52.032;4.376;2023-03-04T14:30:19;102752.13;;;7.01;nan
70053;BME280;57398;52.032;4.376;2023-03-04T14:33:28;102746.09;;;6.92;nan
70053;BME280;57398;52.032;4.376;2023-03-04T14:36:19;102745.25;;;6.91;nan
70053;BME280;57398;52.032;4.376;2023-03-04T14:39:14;102746.88;;;6.75;nan
70053;BME280;57398;52.032;4.376;2023-03-04T14:42:07;102745.09;;;6.75;nan
70053;BME280;57398;52.032;4.376;2023-03-04T14:44:57;102735.56;;;6.76;nan
70053;BME280;57398;52.032;4.376;2023-03-04T14:47:52;102734.09;;;6.91;nan
70053;BME280;57398;52.032;4.376;2023-03-04T14:50:47;102726.00;;;7.04;nan
70053;BME280;57398;52.032;4.376;2023-03-04T14:53:35;102727.75;;;6.85;nan
70053;BME280;57398;52.032;4.376;2023-03-04T14:56:27;102727.00;;;6.75;nan
70053;BME280;57398;52.032;4.376;2023-03-04T14:59:26;102713.50;;;6.63;nan
70053;BME280;57398;52.032;4.376;2023-03-04T15:02:18;102708.03;;;6.66;nan
70053;BME280;57398;52.032;4.376;2023-03-04T15:05:09;102705.84;;;6.89;nan
70053;BME280;57398;52.032;4.376;2023-03-04T15:08:04;102705.84;;;6.71;nan
70053;BME280;57398;52.032;4.376;2023-03-04T15:10:55;102698.91;;;6.72;nan
70053;BME280;57398;52.032;4.376;2023-03-04T15:13:46;102705.16;;;6.69;nan
70053;BME280;57398;52.032;4.376;2023-03-04T15:16:53;102709.88;;;6.56;nan
70053;BME280;57398;52.032;4.376;2023-03-04T15:19:42;102706.81;;;6.43;nan
70053;BME280;57398;52.032;4.376;2023-03-04T15:22:32;102707.59;;;6.25;nan
70053;BME280;57398;52.032;4.376;2023-03-04T15:25:20;102708.47;;;6.06;nan
70053;BME280;57398;52.032;4.376;2023-03-04T15:28:14;102729.53;;;6.02;nan
70053;BME280;57398;52.032;4.376;2023-03-04T15:31:05;102731.75;;;5.87;nan
70053;BME280;57398;52.032;4.376;2023-03-04T15:33:53;102743.84;;;5.86;nan
70053;BME280;57398;52.032;4.376;2023-03-04T15:36:43;102741.53;;;5.74;nan
70053;BME280;57398;52.032;4.376;2023-03-04T15:39:33;102733.41;;;5.69;nan
70053;BME280;57398;52.032;4.376;2023-03-04T15:42:22;102729.63;;;5.73;nan
70053;BME280;57398;52.032;4.376;2023-03-04T15:45:20;102726.16;;;5.92;nan
70053;BME280;57398;52.032;4.376;2023-03-04T15:48:11;102723.34;;;5.85;nan